sensor_id;sensor_type;location;lat;lon;timestamp;P1;durP1;ratioP1;P2;durP2;ratioP2
20844;SDS011;10583;49.084;8.646;2024-01-15T00:00:10;20.57;;;20.37;;
20844;SDS011;10583;49.084;8.646;2024-01-15T00:02:39;19.07;;;18.87;;
20844;SDS011;10583;49.084;8.646;2024-01-15T00:05:05;19.63;;;19.33;;
20844;SDS011;10583;49.084;8.646;2024-01-15T00:07:32;19.73;;;19.53;;
20844;SDS011;10583;49.084;8.646;2024-01-15T00:09:59;21.13;;;20.90;;
20844;SDS011;10583;49.084;8.646;2024-01-15T00:12:26;20.53;;;20.27;;
20844;SDS011;10583;49.084;8.646;2024-01-15T00:14:53;19.70;;;19.50;;
20844;SDS011;10583;49.084;8.646;2024-01-15T00:17:20;20.60;;;20.40;;
20844;SDS011;10583;49.084;8.646;2024-01-15T00:19:48;20.97;;;20.67;;
20844;SDS011;10583;49.084;8.646;2024-01-15T00:22:14;19.90;;;19.70;;
20844;SDS011;10583;49.084;8.646;2024-01-15T00:24:41;20.50;;;20.20;;
20844;SDS011;10583;49.084;8.646;2024-01-15T00:27:08;20.27;;;19.97;;
20844;SDS011;10583;49.084;8.646;2024-01-15T00:29:34;20.20;;;20.00;;
20844;SDS011;10583;49.084;8.646;2024-01-15T00:32:01;19.40;;;19.20;;
20844;SDS011;10583;49.084;8.646;2024-01-15T00:34:28;21.20;;;20.90;;
20844;SDS011;10583;49.084;8.646;2024-01-15T00:36:56;21.30;;;21.10;;
20844;SDS011;10583;49.084;8.646;2024-01-15T00:39:22;20.67;;;20.47;;
20844;SDS011;10583;49.084;8.646;2024-01-15T00:41:49;19.90;;;19.70;;
20844;SDS011;10583;49.084;8.646;2024-01-15T00:44:16;22.27;;;21.97;;
20844;SDS011;10583;49.084;8.646;2024-01-15T00:46:43;22.43;;;22.13;;
20844;SDS011;10583;49.084;8.646;2024-01-15T00:49:10;21.47;;;21.17;;
20844;SDS011;10583;49.084;8.646;2024-01-15T00:51:38;21.40;;;21.10;;
20844;SDS011;10583;49.084;8.646;2024-01-15T00:54:06;23.13;;;22.83;;
20844;SDS011;10583;49.084;8.646;2024-01-15T00:56:33;23.07;;;22.77;;
20844;SDS011;10583;49.084;8.646;2024-01-15T00:59:00;21.97;;;21.67;;
20844;SDS011;10583;49.084;8.646;2024-01-15T01:01:26;21.80;;;21.50;;
20844;SDS011;10583;49.084;8.646;2024-01-15T01:03:53;22.53;;;22.23;;
20844;SDS011;10583;49.084;8.646;2024-01-15T01:06:20;22.70;;;22.40;;
20844;SDS011;10583;49.084;8.646;2024-01-15T01:08:47;22.37;;;22.07;;
20844;SDS011;10583;49.084;8.646;2024-01-15T01:11:15;21.10;;;20.90;;
20844;SDS011;10583;49.084;8.646;2024-01-15T01:13:41;22.07;;;21.77;;
20844;SDS011;10583;49.084;8.646;2024-01-15T01:16:07;20.00;;;19.80;;
20844;SDS011;10583;49.084;8.646;2024-01-15T01:18:34;20.57;;;20.37;;
20844;SDS011;10583;49.084;8.646;2024-01-15T01:21:01;21.57;;;21.27;;
20844;SDS011;10583;49.084;8.646;2024-01-15T01:23:28;21.83;;;21.53;;
20844;SDS011;10583;49.084;8.646;2024-01-15T01:25:54;22.17;;;21.87;;
20844;SDS011;10583;49.084;8.646;2024-01-15T01:28:22;21.23;;;20.93;;
20844;SDS011;10583;49.084;8.646;2024-01-15T01:30:49;20.10;;;19.90;;
20844;SDS011;10583;49.084;8.646;2024-01-15T01:33:16;19.57;;;19.37;;
20844;SDS011;10583;49.084;8.646;2024-01-15T01:35:42;19.77;;;19.57;;
20844;SDS011;10583;49.084;8.646;2024-01-15T01:38:10;18.90;;;18.70;;
20844;SDS011;10583;49.084;8.646;2024-01-15T01:40:36;21.03;;;20.73;;
20844;SDS011;10583;49.084;8.646;2024-01-15T01:43:03;20.60;;;20.37;;
20844;SDS011;10583;49.084;8.646;2024-01-15T01:45:32;19.20;;;19.00;;
20844;SDS011;10583;49.084;8.646;2024-01-15T01:47:59;20.63;;;20.43;;
20844;SDS011;10583;49.084;8.646;2024-01-15T01:50:26;18.60;;;18.40;;
20844;SDS011;10583;49.084;8.646;2024-01-15T01:52:53;19.13;;;18.93;;
20844;SDS011;10583;49.084;8.646;2024-01-15T01:55:20;18.17;;;17.97;;
20844;SDS011;10583;49.084;8.646;2024-01-15T01:57:50;19.83;;;19.60;;
20844;SDS011;10583;49.084;8.646;2024-01-15T02:00:17;20.33;;;20.13;;
20844;SDS011;10583;49.084;8.646;2024-01-15T02:02:45;19.70;;;19.50;;
20844;SDS011;10583;49.084;8.646;2024-01-15T02:05:12;20.03;;;19.77;;
20844;SDS011;10583;49.084;8.646;2024-01-15T02:07:43;20.20;;;19.97;;
20844;SDS011;10583;49.084;8.646;2024-01-15T02:10:10;20.10;;;19.90;;
20844;SDS011;10583;49.084;8.646;2024-01-15T02:12:37;18.93;;;18.73;;
20844;SDS011;10583;49.084;8.646;2024-01-15T02:15:04;18.90;;;18.70;;
20844;SDS011;10583;49.084;8.646;2024-01-15T02:17:31;19.20;;;19.00;;
20844;SDS011;10583;49.084;8.646;2024-01-15T02:19:59;19.67;;;19.47;;
20844;SDS011;10583;49.084;8.646;2024-01-15T02:22:26;18.47;;;18.27;;
20844;SDS011;10583;49.084;8.646;2024-01-15T02:24:53;18.60;;;18.40;;
20844;SDS011;10583;49.084;8.646;2024-01-15T02:27:20;20.20;;;20.00;;
20844;SDS011;10583;49.084;8.646;2024-01-15T02:29:47;18.20;;;18.00;;
20844;SDS011;10583;49.084;8.646;2024-01-15T02:32:14;19.03;;;18.83;;
20844;SDS011;10583;49.084;8.646;2024-01-15T02:34:41;20.13;;;19.93;;
20844;SDS011;10583;49.084;8.646;2024-01-15T02:37:07;20.27;;;20.07;;
20844;SDS011;10583;49.084;8.646;2024-01-15T02:39:34;20.67;;;20.47;;
20844;SDS011;10583;49.084;8.646;2024-01-15T02:42:02;19.17;;;18.97;;
20844;SDS011;10583;49.084;8.646;2024-01-15T02:44:29;20.67;;;20.47;;
20844;SDS011;10583;49.084;8.646;2024-01-15T02:46:55;20.00;;;19.80;;
20844;SDS011;10583;49.084;8.646;2024-01-15T02:49:22;21.37;;;21.17;;
20844;SDS011;10583;49.084;8.646;2024-01-15T02:51:49;21.23;;;21.03;;
20844;SDS011;10583;49.084;8.646;2024-01-15T02:54:15;20.90;;;20.60;;
20844;SDS011;10583;49.084;8.646;2024-01-15T02:56:42;20.43;;;20.17;;
20844;SDS011;10583;49.084;8.646;2024-01-15T02:59:10;22.07;;;21.77;;
20844;SDS011;10583;49.084;8.646;2024-01-15T03:01:37;19.90;;;19.70;;
20844;SDS011;10583;49.084;8.646;2024-01-15T03:04:03;21.97;;;21.67;;
20844;SDS011;10583;49.084;8.646;2024-01-15T03:06:30;21.40;;;21.20;;
20844;SDS011;10583;49.084;8.646;2024-01-15T03:08:57;21.03;;;20.83;;
20844;SDS011;10583;49.084;8.646;2024-01-15T03:11:23;20.40;;;20.20;;
20844;SDS011;10583;49.084;8.646;2024-01-15T03:13:50;20.20;;;20.00;;
20844;SDS011;10583;49.084;8.646;2024-01-15T03:16:18;21.00;;;20.80;;
20844;SDS011;10583;49.084;8.646;2024-01-15T03:18:45;20.63;;;20.43;;
20844;SDS011;10583;49.084;8.646;2024-01-15T03:21:12;21.00;;;20.70;;
20844;SDS011;10583;49.084;8.646;2024-01-15T03:23:39;20.73;;;20.53;;
20844;SDS011;10583;49.084;8.646;2024-01-15T03:26:05;20.00;;;19.80;;
20844;SDS011;10583;49.084;8.646;2024-01-15T03:28:32;21.10;;;20.90;;
20844;SDS011;10583;49.084;8.646;2024-01-15T03:30:58;19.97;;;19.77;;
20844;SDS011;10583;49.084;8.646;2024-01-15T03:33:26;21.50;;;21.23;;
20844;SDS011;10583;49.084;8.646;2024-01-15T03:35:53;20.30;;;20.10;;
20844;SDS011;10583;49.084;8.646;2024-01-15T03:38:20;18.60;;;18.40;;
20844;SDS011;10583;49.084;8.646;2024-01-15T03:40:46;20.23;;;20.03;;
20844;SDS011;10583;49.084;8.646;2024-01-15T03:43:13;20.10;;;19.90;;
20844;SDS011;10583;49.084;8.646;2024-01-15T03:45:40;20.53;;;20.33;;
20844;SDS011;10583;49.084;8.646;2024-01-15T03:48:06;20.13;;;19.93;;
20844;SDS011;10583;49.084;8.646;2024-01-15T03:50:34;20.40;;;20.20;;
20844;SDS011;10583;49.084;8.646;2024-01-15T03:53:01;20.23;;;20.03;;
20844;SDS011;10583;49.084;8.646;2024-01-15T03:55:28;18.33;;;18.13;;
20844;SDS011;10583;49.084;8.646;2024-01-15T03:57:54;19.20;;;19.00;;
20844;SDS011;10583;49.084;8.646;2024-01-15T04:00:21;19.53;;;19.33;;
20844;SDS011;10583;49.084;8.646;2024-01-15T04:02:48;19.10;;;18.90;;
20844;SDS011;10583;49.084;8.646;2024-01-15T04:05:14;18.43;;;18.23;;
20844;SDS011;10583;49.084;8.646;2024-01-15T04:07:43;19.57;;;19.37;;
20844;SDS011;10583;49.084;8.646;2024-01-15T04:10:09;18.17;;;17.97;;
20844;SDS011;10583;49.084;8.646;2024-01-15T04:12:36;18.73;;;18.53;;
20844;SDS011;10583;49.084;8.646;2024-01-15T04:15:03;18.43;;;18.23;;
20844;SDS011;10583;49.084;8.646;2024-01-15T04:17:30;19.67;;;19.47;;
20844;SDS011;10583;49.084;8.646;2024-01-15T04:19:57;20.07;;;19.87;;
20844;SDS011;10583;49.084;8.646;2024-01-15T04:22:23;19.73;;;19.53;;
20844;SDS011;10583;49.084;8.646;2024-01-15T04:24:52;18.87;;;18.67;;
20844;SDS011;10583;49.084;8.646;2024-01-15T04:27:19;18.73;;;18.53;;
20844;SDS011;10583;49.084;8.646;2024-01-15T04:29:45;19.83;;;19.63;;
20844;SDS011;10583;49.084;8.646;2024-01-15T04:32:13;19.70;;;19.50;;
20844;SDS011;10583;49.084;8.646;2024-01-15T04:34:39;18.77;;;18.57;;
20844;SDS011;10583;49.084;8.646;2024-01-15T04:37:06;17.17;;;16.97;;
20844;SDS011;10583;49.084;8.646;2024-01-15T04:39:33;18.67;;;18.47;;
20844;SDS011;10583;49.084;8.646;2024-01-15T04:42:01;19.77;;;19.57;;
20844;SDS011;10583;49.084;8.646;2024-01-15T04:44:28;18.60;;;18.40;;
20844;SDS011;10583;49.084;8.646;2024-01-15T04:46:54;19.67;;;19.47;;
20844;SDS011;10583;49.084;8.646;2024-01-15T04:49:21;18.80;;;18.60;;
20844;SDS011;10583;49.084;8.646;2024-01-15T04:51:48;18.63;;;18.43;;
20844;SDS011;10583;49.084;8.646;2024-01-15T04:54:14;18.23;;;18.03;;
20844;SDS011;10583;49.084;8.646;2024-01-15T04:56:42;17.93;;;17.73;;
20844;SDS011;10583;49.084;8.646;2024-01-15T04:59:10;18.70;;;18.50;;
20844;SDS011;10583;49.084;8.646;2024-01-15T05:01:37;17.73;;;17.53;;
20844;SDS011;10583;49.084;8.646;2024-01-15T05:04:04;18.27;;;18.07;;
20844;SDS011;10583;49.084;8.646;2024-01-15T05:06:30;18.87;;;18.67;;
20844;SDS011;10583;49.084;8.646;2024-01-15T05:08:57;17.80;;;17.60;;
20844;SDS011;10583;49.084;8.646;2024-01-15T05:11:24;18.83;;;18.63;;
20844;SDS011;10583;49.084;8.646;2024-01-15T05:13:51;19.70;;;19.50;;
20844;SDS011;10583;49.084;8.646;2024-01-15T05:16:19;18.27;;;18.07;;
20844;SDS011;10583;49.084;8.646;2024-01-15T05:18:45;18.33;;;18.13;;
20844;SDS011;10583;49.084;8.646;2024-01-15T05:21:12;19.33;;;19.13;;
20844;SDS011;10583;49.084;8.646;2024-01-15T05:23:39;19.00;;;18.80;;
20844;SDS011;10583;49.084;8.646;2024-01-15T05:26:06;18.63;;;18.43;;
20844;SDS011;10583;49.084;8.646;2024-01-15T05:28:34;19.83;;;19.63;;
20844;SDS011;10583;49.084;8.646;2024-01-15T05:31:01;18.23;;;18.03;;
20844;SDS011;10583;49.084;8.646;2024-01-15T05:33:30;19.80;;;19.60;;
20844;SDS011;10583;49.084;8.646;2024-01-15T05:35:57;19.43;;;19.23;;
20844;SDS011;10583;49.084;8.646;2024-01-15T05:38:24;19.30;;;19.10;;
20844;SDS011;10583;49.084;8.646;2024-01-15T05:40:51;18.57;;;18.37;;
20844;SDS011;10583;49.084;8.646;2024-01-15T05:43:17;18.10;;;17.90;;
20844;SDS011;10583;49.084;8.646;2024-01-15T05:45:44;19.20;;;19.00;;
20844;SDS011;10583;49.084;8.646;2024-01-15T05:48:11;18.20;;;18.00;;
20844;SDS011;10583;49.084;8.646;2024-01-15T05:50:39;19.93;;;19.73;;
20844;SDS011;10583;49.084;8.646;2024-01-15T05:53:06;18.77;;;18.57;;
20844;SDS011;10583;49.084;8.646;2024-01-15T05:55:33;18.40;;;18.20;;
20844;SDS011;10583;49.084;8.646;2024-01-15T05:58:01;19.37;;;19.17;;
20844;SDS011;10583;49.084;8.646;2024-01-15T06:00:27;17.73;;;17.53;;
20844;SDS011;10583;49.084;8.646;2024-01-15T06:02:54;19.23;;;19.03;;
20844;SDS011;10583;49.084;8.646;2024-01-15T06:05:21;17.53;;;17.33;;
20844;SDS011;10583;49.084;8.646;2024-01-15T06:07:48;18.40;;;18.20;;
20844;SDS011;10583;49.084;8.646;2024-01-15T06:10:15;18.27;;;18.07;;
20844;SDS011;10583;49.084;8.646;2024-01-15T06:12:42;18.93;;;18.73;;
20844;SDS011;10583;49.084;8.646;2024-01-15T06:15:09;17.77;;;17.57;;
20844;SDS011;10583;49.084;8.646;2024-01-15T06:17:36;18.40;;;18.20;;
20844;SDS011;10583;49.084;8.646;2024-01-15T06:20:03;18.57;;;18.37;;
20844;SDS011;10583;49.084;8.646;2024-01-15T06:22:30;17.83;;;17.63;;
20844;SDS011;10583;49.084;8.646;2024-01-15T06:24:58;20.00;;;19.80;;
20844;SDS011;10583;49.084;8.646;2024-01-15T06:27:25;18.73;;;18.53;;
20844;SDS011;10583;49.084;8.646;2024-01-15T06:29:52;19.53;;;19.33;;
20844;SDS011;10583;49.084;8.646;2024-01-15T06:32:18;19.57;;;19.37;;
20844;SDS011;10583;49.084;8.646;2024-01-15T06:34:45;19.10;;;18.90;;
20844;SDS011;10583;49.084;8.646;2024-01-15T06:37:12;19.90;;;19.70;;
20844;SDS011;10583;49.084;8.646;2024-01-15T06:39:38;18.93;;;18.73;;
20844;SDS011;10583;49.084;8.646;2024-01-15T06:42:06;21.10;;;20.90;;
20844;SDS011;10583;49.084;8.646;2024-01-15T06:44:33;19.07;;;18.87;;
20844;SDS011;10583;49.084;8.646;2024-01-15T06:47:00;20.13;;;19.93;;
20844;SDS011;10583;49.084;8.646;2024-01-15T06:49:27;20.07;;;19.87;;
20844;SDS011;10583;49.084;8.646;2024-01-15T06:51:54;20.50;;;20.30;;
20844;SDS011;10583;49.084;8.646;2024-01-15T06:54:21;22.07;;;21.87;;
20844;SDS011;10583;49.084;8.646;2024-01-15T06:56:48;20.87;;;20.67;;
20844;SDS011;10583;49.084;8.646;2024-01-15T06:59:16;21.63;;;21.43;;
20844;SDS011;10583;49.084;8.646;2024-01-15T07:01:43;22.07;;;21.87;;
20844;SDS011;10583;49.084;8.646;2024-01-15T07:04:10;21.60;;;21.40;;
20844;SDS011;10583;49.084;8.646;2024-01-15T07:06:36;21.50;;;21.30;;
20844;SDS011;10583;49.084;8.646;2024-01-15T07:09:03;21.20;;;21.00;;
20844;SDS011;10583;49.084;8.646;2024-01-15T07:11:31;22.10;;;21.90;;
20844;SDS011;10583;49.084;8.646;2024-01-15T07:13:57;23.07;;;22.87;;
20844;SDS011;10583;49.084;8.646;2024-01-15T07:16:25;21.10;;;20.90;;
20844;SDS011;10583;49.084;8.646;2024-01-15T07:18:52;22.23;;;21.93;;
20844;SDS011;10583;49.084;8.646;2024-01-15T07:21:19;21.37;;;21.17;;
20844;SDS011;10583;49.084;8.646;2024-01-15T07:23:45;21.17;;;20.97;;
20844;SDS011;10583;49.084;8.646;2024-01-15T07:26:12;21.00;;;20.80;;
20844;SDS011;10583;49.084;8.646;2024-01-15T07:28:39;20.43;;;20.23;;
20844;SDS011;10583;49.084;8.646;2024-01-15T07:31:06;22.23;;;22.03;;
20844;SDS011;10583;49.084;8.646;2024-01-15T07:33:35;21.97;;;21.77;;
20844;SDS011;10583;49.084;8.646;2024-01-15T07:36:01;21.37;;;21.17;;
20844;SDS011;10583;49.084;8.646;2024-01-15T07:38:28;20.70;;;20.50;;
20844;SDS011;10583;49.084;8.646;2024-01-15T07:40:54;21.87;;;21.67;;
20844;SDS011;10583;49.084;8.646;2024-01-15T07:43:21;21.47;;;21.27;;
20844;SDS011;10583;49.084;8.646;2024-01-15T07:45:48;21.13;;;20.93;;
20844;SDS011;10583;49.084;8.646;2024-01-15T07:48:14;20.27;;;20.07;;
20844;SDS011;10583;49.084;8.646;2024-01-15T07:50:42;20.03;;;19.83;;
20844;SDS011;10583;49.084;8.646;2024-01-15T07:53:09;21.23;;;21.03;;
20844;SDS011;10583;49.084;8.646;2024-01-15T07:55:35;20.27;;;20.07;;
20844;SDS011;10583;49.084;8.646;2024-01-15T07:58:02;21.03;;;20.83;;
20844;SDS011;10583;49.084;8.646;2024-01-15T08:00:29;19.60;;;19.40;;
20844;SDS011;10583;49.084;8.646;2024-01-15T08:02:56;19.27;;;19.07;;
20844;SDS011;10583;49.084;8.646;2024-01-15T08:05:22;18.47;;;18.27;;
20844;SDS011;10583;49.084;8.646;2024-01-15T08:07:50;19.03;;;18.83;;
20844;SDS011;10583;49.084;8.646;2024-01-15T08:10:17;18.30;;;18.10;;
20844;SDS011;10583;49.084;8.646;2024-01-15T08:12:44;19.27;;;19.07;;
20844;SDS011;10583;49.084;8.646;2024-01-15T08:15:10;18.50;;;18.30;;
20844;SDS011;10583;49.084;8.646;2024-01-15T08:17:37;18.17;;;17.97;;
20844;SDS011;10583;49.084;8.646;2024-01-15T08:20:04;19.27;;;19.07;;
20844;SDS011;10583;49.084;8.646;2024-01-15T08:22:31;18.30;;;18.10;;
20844;SDS011;10583;49.084;8.646;2024-01-15T08:24:59;17.93;;;17.73;;
20844;SDS011;10583;49.084;8.646;2024-01-15T08:27:26;18.87;;;18.67;;
20844;SDS011;10583;49.084;8.646;2024-01-15T08:29:53;17.97;;;17.77;;
20844;SDS011;10583;49.084;8.646;2024-01-15T08:32:19;19.67;;;19.47;;
20844;SDS011;10583;49.084;8.646;2024-01-15T08:34:46;19.00;;;18.80;;
20844;SDS011;10583;49.084;8.646;2024-01-15T08:37:14;19.90;;;19.70;;
20844;SDS011;10583;49.084;8.646;2024-01-15T08:39:41;19.13;;;18.93;;
20844;SDS011;10583;49.084;8.646;2024-01-15T08:42:09;18.83;;;18.63;;
20844;SDS011;10583;49.084;8.646;2024-01-15T08:44:36;19.90;;;19.70;;
20844;SDS011;10583;49.084;8.646;2024-01-15T08:47:04;19.13;;;18.93;;
20844;SDS011;10583;49.084;8.646;2024-01-15T08:49:31;17.90;;;17.77;;
20844;SDS011;10583;49.084;8.646;2024-01-15T08:51:58;18.77;;;18.57;;
20844;SDS011;10583;49.084;8.646;2024-01-15T08:54:24;19.80;;;19.60;;
20844;SDS011;10583;49.084;8.646;2024-01-15T08:56:51;19.67;;;19.47;;
20844;SDS011;10583;49.084;8.646;2024-01-15T08:59:19;18.40;;;18.20;;
20844;SDS011;10583;49.084;8.646;2024-01-15T09:01:49;17.83;;;17.63;;
20844;SDS011;10583;49.084;8.646;2024-01-15T09:04:16;18.03;;;17.83;;
20844;SDS011;10583;49.084;8.646;2024-01-15T09:06:44;18.23;;;18.03;;
20844;SDS011;10583;49.084;8.646;2024-01-15T09:09:11;16.43;;;16.33;;
20844;SDS011;10583;49.084;8.646;2024-01-15T09:11:38;16.70;;;16.60;;
20844;SDS011;10583;49.084;8.646;2024-01-15T09:14:05;15.67;;;15.57;;
20844;SDS011;10583;49.084;8.646;2024-01-15T09:16:33;15.30;;;15.20;;
20844;SDS011;10583;49.084;8.646;2024-01-15T09:18:59;16.73;;;16.63;;
20844;SDS011;10583;49.084;8.646;2024-01-15T09:21:26;17.33;;;17.13;;
20844;SDS011;10583;49.084;8.646;2024-01-15T09:23:53;16.07;;;15.97;;
20844;SDS011;10583;49.084;8.646;2024-01-15T09:26:19;17.10;;;16.90;;
20844;SDS011;10583;49.084;8.646;2024-01-15T09:28:46;17.97;;;17.77;;
20844;SDS011;10583;49.084;8.646;2024-01-15T09:31:13;16.50;;;16.30;;
20844;SDS011;10583;49.084;8.646;2024-01-15T09:33:41;16.80;;;16.70;;
20844;SDS011;10583;49.084;8.646;2024-01-15T09:36:08;17.70;;;17.50;;
20844;SDS011;10583;49.084;8.646;2024-01-15T09:38:34;17.57;;;17.47;;
20844;SDS011;10583;49.084;8.646;2024-01-15T09:41:01;17.87;;;17.67;;
20844;SDS011;10583;49.084;8.646;2024-01-15T09:43:28;18.07;;;17.90;;
20844;SDS011;10583;49.084;8.646;2024-01-15T09:45:55;16.87;;;16.77;;
20844;SDS011;10583;49.084;8.646;2024-01-15T09:48:22;17.87;;;17.67;;
20844;SDS011;10583;49.084;8.646;2024-01-15T09:50:50;16.30;;;16.10;;
20844;SDS011;10583;49.084;8.646;2024-01-15T09:53:17;16.90;;;16.77;;
20844;SDS011;10583;49.084;8.646;2024-01-15T09:55:45;17.67;;;17.47;;
20844;SDS011;10583;49.084;8.646;2024-01-15T09:58:12;16.53;;;16.43;;
20844;SDS011;10583;49.084;8.646;2024-01-15T10:00:39;17.23;;;17.03;;
20844;SDS011;10583;49.084;8.646;2024-01-15T10:03:08;18.03;;;17.83;;
20844;SDS011;10583;49.084;8.646;2024-01-15T10:05:36;16.63;;;16.53;;
20844;SDS011;10583;49.084;8.646;2024-01-15T10:08:04;17.40;;;17.30;;
20844;SDS011;10583;49.084;8.646;2024-01-15T10:10:31;17.33;;;17.13;;
20844;SDS011;10583;49.084;8.646;2024-01-15T10:12:58;16.93;;;16.73;;
20844;SDS011;10583;49.084;8.646;2024-01-15T10:15:25;17.67;;;17.47;;
20844;SDS011;10583;49.084;8.646;2024-01-15T10:17:52;17.27;;;17.13;;
20844;SDS011;10583;49.084;8.646;2024-01-15T10:20:19;17.07;;;16.97;;
20844;SDS011;10583;49.084;8.646;2024-01-15T10:22:47;18.17;;;17.97;;
20844;SDS011;10583;49.084;8.646;2024-01-15T10:25:17;20.07;;;19.87;;
20844;SDS011;10583;49.084;8.646;2024-01-15T10:27:52;19.30;;;19.10;;
20844;SDS011;10583;49.084;8.646;2024-01-15T10:30:28;20.63;;;20.43;;
20844;SDS011;10583;49.084;8.646;2024-01-15T10:32:59;18.67;;;18.47;;
20844;SDS011;10583;49.084;8.646;2024-01-15T10:35:27;18.87;;;18.67;;
20844;SDS011;10583;49.084;8.646;2024-01-15T10:37:55;19.00;;;18.80;;
20844;SDS011;10583;49.084;8.646;2024-01-15T10:40:23;20.40;;;20.20;;
20844;SDS011;10583;49.084;8.646;2024-01-15T10:42:49;19.07;;;18.87;;
20844;SDS011;10583;49.084;8.646;2024-01-15T10:45:16;19.17;;;18.97;;
20844;SDS011;10583;49.084;8.646;2024-01-15T10:47:43;18.73;;;18.53;;
20844;SDS011;10583;49.084;8.646;2024-01-15T10:50:11;19.83;;;19.63;;
20844;SDS011;10583;49.084;8.646;2024-01-15T10:52:38;20.70;;;20.50;;
20844;SDS011;10583;49.084;8.646;2024-01-15T10:55:06;20.13;;;19.93;;
20844;SDS011;10583;49.084;8.646;2024-01-15T10:57:36;19.97;;;19.77;;
20844;SDS011;10583;49.084;8.646;2024-01-15T11:00:03;19.00;;;18.80;;
20844;SDS011;10583;49.084;8.646;2024-01-15T11:02:31;20.70;;;20.50;;
20844;SDS011;10583;49.084;8.646;2024-01-15T11:04:59;20.57;;;20.37;;
20844;SDS011;10583;49.084;8.646;2024-01-15T11:07:26;19.80;;;19.60;;
20844;SDS011;10583;49.084;8.646;2024-01-15T11:09:53;19.77;;;19.57;;
20844;SDS011;10583;49.084;8.646;2024-01-15T11:12:18;19.33;;;19.13;;
20844;SDS011;10583;49.084;8.646;2024-01-15T11:14:47;19.10;;;18.90;;
20844;SDS011;10583;49.084;8.646;2024-01-15T11:17:15;18.97;;;18.77;;
20844;SDS011;10583;49.084;8.646;2024-01-15T11:19:43;21.33;;;21.13;;
20844;SDS011;10583;49.084;8.646;2024-01-15T11:22:19;19.80;;;19.60;;
20844;SDS011;10583;49.084;8.646;2024-01-15T11:25:17;22.80;;;22.60;;
20844;SDS011;10583;49.084;8.646;2024-01-15T11:27:45;18.93;;;18.73;;
20844;SDS011;10583;49.084;8.646;2024-01-15T11:30:15;21.90;;;21.70;;
20844;SDS011;10583;49.084;8.646;2024-01-15T11:32:42;20.07;;;19.87;;
20844;SDS011;10583;49.084;8.646;2024-01-15T11:35:10;21.67;;;21.47;;
20844;SDS011;10583;49.084;8.646;2024-01-15T11:37:57;19.90;;;19.70;;
20844;SDS011;10583;49.084;8.646;2024-01-15T11:40:37;23.10;;;22.90;;
20844;SDS011;10583;49.084;8.646;2024-01-15T11:43:05;19.90;;;19.70;;
20844;SDS011;10583;49.084;8.646;2024-01-15T11:45:34;17.37;;;17.17;;
20844;SDS011;10583;49.084;8.646;2024-01-15T11:48:11;19.20;;;19.00;;
20844;SDS011;10583;49.084;8.646;2024-01-15T11:50:41;17.57;;;17.37;;
20844;SDS011;10583;49.084;8.646;2024-01-15T11:53:12;17.77;;;17.57;;
20844;SDS011;10583;49.084;8.646;2024-01-15T11:55:44;17.90;;;17.70;;
20844;SDS011;10583;49.084;8.646;2024-01-15T11:58:13;16.60;;;16.40;;
20844;SDS011;10583;49.084;8.646;2024-01-15T12:00:42;18.50;;;18.30;;
20844;SDS011;10583;49.084;8.646;2024-01-15T12:03:09;16.70;;;16.50;;
20844;SDS011;10583;49.084;8.646;2024-01-15T12:05:36;19.20;;;19.00;;
20844;SDS011;10583;49.084;8.646;2024-01-15T12:08:04;17.60;;;17.40;;
20844;SDS011;10583;49.084;8.646;2024-01-15T12:10:35;17.27;;;17.07;;
20844;SDS011;10583;49.084;8.646;2024-01-15T12:13:04;18.67;;;18.47;;
20844;SDS011;10583;49.084;8.646;2024-01-15T12:15:32;18.30;;;18.10;;
20844;SDS011;10583;49.084;8.646;2024-01-15T12:18:00;18.43;;;18.23;;
20844;SDS011;10583;49.084;8.646;2024-01-15T12:20:27;18.47;;;18.27;;
20844;SDS011;10583;49.084;8.646;2024-01-15T12:22:55;17.70;;;17.50;;
20844;SDS011;10583;49.084;8.646;2024-01-15T12:25:22;16.87;;;16.67;;
20844;SDS011;10583;49.084;8.646;2024-01-15T12:27:49;16.70;;;16.50;;
20844;SDS011;10583;49.084;8.646;2024-01-15T12:30:19;16.33;;;16.13;;
20844;SDS011;10583;49.084;8.646;2024-01-15T12:32:46;18.77;;;18.57;;
20844;SDS011;10583;49.084;8.646;2024-01-15T12:35:13;17.80;;;17.60;;
20844;SDS011;10583;49.084;8.646;2024-01-15T12:37:40;16.17;;;16.07;;
20844;SDS011;10583;49.084;8.646;2024-01-15T12:40:09;17.53;;;17.33;;
20844;SDS011;10583;49.084;8.646;2024-01-15T12:42:36;17.27;;;17.07;;
20844;SDS011;10583;49.084;8.646;2024-01-15T12:45:05;17.80;;;17.60;;
20844;SDS011;10583;49.084;8.646;2024-01-15T12:47:33;15.70;;;15.60;;
20844;SDS011;10583;49.084;8.646;2024-01-15T12:50:00;15.00;;;14.90;;
20844;SDS011;10583;49.084;8.646;2024-01-15T12:52:27;15.07;;;14.97;;
20844;SDS011;10583;49.084;8.646;2024-01-15T12:54:54;15.07;;;14.97;;
20844;SDS011;10583;49.084;8.646;2024-01-15T12:57:21;17.00;;;16.90;;
20844;SDS011;10583;49.084;8.646;2024-01-15T12:59:48;15.20;;;15.10;;
20844;SDS011;10583;49.084;8.646;2024-01-15T13:02:15;15.73;;;15.63;;
20844;SDS011;10583;49.084;8.646;2024-01-15T13:04:43;14.77;;;14.67;;
20844;SDS011;10583;49.084;8.646;2024-01-15T13:07:10;15.37;;;15.27;;
20844;SDS011;10583;49.084;8.646;2024-01-15T13:09:37;14.37;;;14.27;;
20844;SDS011;10583;49.084;8.646;2024-01-15T13:12:04;13.90;;;13.80;;
20844;SDS011;10583;49.084;8.646;2024-01-15T13:14:31;14.03;;;13.93;;
20844;SDS011;10583;49.084;8.646;2024-01-15T13:16:58;15.37;;;15.27;;
20844;SDS011;10583;49.084;8.646;2024-01-15T13:19:25;13.97;;;13.87;;
20844;SDS011;10583;49.084;8.646;2024-01-15T13:21:53;15.20;;;15.10;;
20844;SDS011;10583;49.084;8.646;2024-01-15T13:24:21;13.70;;;13.60;;
20844;SDS011;10583;49.084;8.646;2024-01-15T13:26:47;13.77;;;13.67;;
20844;SDS011;10583;49.084;8.646;2024-01-15T13:29:14;14.00;;;13.90;;
20844;SDS011;10583;49.084;8.646;2024-01-15T13:31:41;13.17;;;13.07;;
20844;SDS011;10583;49.084;8.646;2024-01-15T13:34:07;13.00;;;12.90;;
20844;SDS011;10583;49.084;8.646;2024-01-15T13:36:35;13.07;;;12.97;;
20844;SDS011;10583;49.084;8.646;2024-01-15T13:39:05;12.67;;;12.57;;
20844;SDS011;10583;49.084;8.646;2024-01-15T13:41:33;13.23;;;13.13;;
20844;SDS011;10583;49.084;8.646;2024-01-15T13:44:00;12.93;;;12.83;;
20844;SDS011;10583;49.084;8.646;2024-01-15T13:46:28;12.33;;;12.23;;
20844;SDS011;10583;49.084;8.646;2024-01-15T13:48:55;12.83;;;12.73;;
20844;SDS011;10583;49.084;8.646;2024-01-15T13:51:22;12.20;;;12.10;;
20844;SDS011;10583;49.084;8.646;2024-01-15T13:53:49;12.60;;;12.50;;
20844;SDS011;10583;49.084;8.646;2024-01-15T13:56:17;13.30;;;13.20;;
20844;SDS011;10583;49.084;8.646;2024-01-15T13:58:44;12.10;;;12.00;;
20844;SDS011;10583;49.084;8.646;2024-01-15T14:01:11;11.10;;;11.00;;
20844;SDS011;10583;49.084;8.646;2024-01-15T14:03:37;12.30;;;12.20;;
20844;SDS011;10583;49.084;8.646;2024-01-15T14:06:04;12.40;;;12.30;;
20844;SDS011;10583;49.084;8.646;2024-01-15T14:08:33;12.70;;;12.60;;
20844;SDS011;10583;49.084;8.646;2024-01-15T14:11:00;12.13;;;12.03;;
20844;SDS011;10583;49.084;8.646;2024-01-15T14:13:28;11.67;;;11.57;;
20844;SDS011;10583;49.084;8.646;2024-01-15T14:15:55;11.83;;;11.73;;
20844;SDS011;10583;49.084;8.646;2024-01-15T14:18:22;11.50;;;11.40;;
20844;SDS011;10583;49.084;8.646;2024-01-15T14:20:48;10.80;;;10.70;;